sensor_id;sensor_type;location;lat;lon;timestamp;P1;durP1;ratioP1;P2;durP2;ratioP2
27612;SDS011;15036;48.094;-1.690;2023-01-08T00:00:05;14.17;;;3.27;;
27612;SDS011;15036;48.094;-1.690;2023-01-08T00:02:31;15.48;;;3.47;;
27612;SDS011;15036;48.094;-1.690;2023-01-08T00:04:56;12.57;;;3.20;;
27612;SDS011;15036;48.094;-1.690;2023-01-08T00:07:22;13.33;;;3.30;;
27612;SDS011;15036;48.094;-1.690;2023-01-08T00:09:47;15.63;;;3.50;;
27612;SDS011;15036;48.094;-1.690;2023-01-08T00:12:14;14.32;;;3.53;;
27612;SDS011;15036;48.094;-1.690;2023-01-08T00:14:40;15.52;;;3.72;;
27612;SDS011;15036;48.094;-1.690;2023-01-08T00:17:05;13.23;;;3.20;;
27612;SDS011;15036;48.094;-1.690;2023-01-08T00:19:31;13.32;;;3.55;;
27612;SDS011;15036;48.094;-1.690;2023-01-08T00:21:56;12.83;;;3.27;;
27612;SDS011;15036;48.094;-1.690;2023-01-08T00:24:21;14.93;;;3.30;;
27612;SDS011;15036;48.094;-1.690;2023-01-08T00:26:47;13.03;;;3.27;;
27612;SDS011;15036;48.094;-1.690;2023-01-08T00:29:12;14.13;;;3.00;;
27612;SDS011;15036;48.094;-1.690;2023-01-08T00:31:37;13.23;;;3.00;;
27612;SDS011;15036;48.094;-1.690;2023-01-08T00:34:03;12.57;;;2.78;;
27612;SDS011;15036;48.094;-1.690;2023-01-08T00:36:28;11.83;;;2.80;;
27612;SDS011;15036;48.094;-1.690;2023-01-08T00:38:53;12.57;;;2.90;;
27612;SDS011;15036;48.094;-1.690;2023-01-08T00:41:19;10.40;;;2.73;;
27612;SDS011;15036;48.094;-1.690;2023-01-08T00:43:44;12.10;;;2.77;;
27612;SDS011;15036;48.094;-1.690;2023-01-08T00:46:09;10.15;;;2.72;;
27612;SDS011;15036;48.094;-1.690;2023-01-08T00:48:35;9.45;;;2.33;;
27612;SDS011;15036;48.094;-1.690;2023-01-08T00:51:02;12.65;;;2.78;;
27612;SDS011;15036;48.094;-1.690;2023-01-08T00:53:29;12.27;;;2.88;;
27612;SDS011;15036;48.094;-1.690;2023-01-08T00:56:01;13.13;;;2.97;;
27612;SDS011;15036;48.094;-1.690;2023-01-08T00:58:27;12.88;;;2.25;;
27612;SDS011;15036;48.094;-1.690;2023-01-08T01:00:53;8.73;;;2.08;;
27612;SDS011;15036;48.094;-1.690;2023-01-08T01:03:18;9.40;;;1.83;;
27612;SDS011;15036;48.094;-1.690;2023-01-08T01:05:44;9.13;;;1.70;;
27612;SDS011;15036;48.094;-1.690;2023-01-08T01:08:09;9.25;;;1.80;;
27612;SDS011;15036;48.094;-1.690;2023-01-08T01:10:36;7.97;;;1.23;;
27612;SDS011;15036;48.094;-1.690;2023-01-08T01:13:03;8.82;;;1.65;;
27612;SDS011;15036;48.094;-1.690;2023-01-08T01:15:28;7.97;;;1.45;;
27612;SDS011;15036;48.094;-1.690;2023-01-08T01:17:54;7.10;;;1.20;;
27612;SDS011;15036;48.094;-1.690;2023-01-08T01:20:19;9.70;;;1.38;;
27612;SDS011;15036;48.094;-1.690;2023-01-08T01:22:44;5.80;;;1.42;;
27612;SDS011;15036;48.094;-1.690;2023-01-08T01:25:10;7.90;;;1.70;;
27612;SDS011;15036;48.094;-1.690;2023-01-08T01:27:35;5.60;;;1.60;;
27612;SDS011;15036;48.094;-1.690;2023-01-08T01:30:01;8.82;;;1.40;;
27612;SDS011;15036;48.094;-1.690;2023-01-08T01:32:26;8.77;;;1.50;;
27612;SDS011;15036;48.094;-1.690;2023-01-08T01:34:52;7.55;;;1.38;;
27612;SDS011;15036;48.094;-1.690;2023-01-08T01:37:17;5.78;;;1.10;;
27612;SDS011;15036;48.094;-1.690;2023-01-08T01:39:43;9.75;;;1.52;;
27612;SDS011;15036;48.094;-1.690;2023-01-08T01:42:12;9.55;;;1.67;;
27612;SDS011;15036;48.094;-1.690;2023-01-08T01:44:58;7.70;;;1.85;;
27612;SDS011;15036;48.094;-1.690;2023-01-08T01:47:29;8.55;;;1.55;;
27612;SDS011;15036;48.094;-1.690;2023-01-08T01:50:09;6.78;;;1.67;;
27612;SDS011;15036;48.094;-1.690;2023-01-08T01:52:45;6.73;;;1.70;;
27612;SDS011;15036;48.094;-1.690;2023-01-08T01:55:17;7.13;;;1.73;;
27612;SDS011;15036;48.094;-1.690;2023-01-08T01:57:43;9.73;;;1.70;;
27612;SDS011;15036;48.094;-1.690;2023-01-08T02:00:15;7.90;;;1.42;;
27612;SDS011;15036;48.094;-1.690;2023-01-08T02:02:40;6.47;;;1.60;;
27612;SDS011;15036;48.094;-1.690;2023-01-08T02:05:06;6.82;;;1.40;;
27612;SDS011;15036;48.094;-1.690;2023-01-08T02:10:35;6.85;;;1.60;;
27612;SDS011;15036;48.094;-1.690;2023-01-08T02:13:09;5.63;;;1.40;;
27612;SDS011;15036;48.094;-1.690;2023-01-08T02:15:46;12.02;;;1.77;;
27612;SDS011;15036;48.094;-1.690;2023-01-08T02:18:20;7.15;;;1.48;;
27612;SDS011;15036;48.094;-1.690;2023-01-08T02:28:42;7.05;;;1.92;;
27612;SDS011;15036;48.094;-1.690;2023-01-08T02:31:15;10.35;;;1.70;;
27612;SDS011;15036;48.094;-1.690;2023-01-08T02:33:41;11.57;;;2.33;;
27612;SDS011;15036;48.094;-1.690;2023-01-08T02:36:20;9.65;;;2.30;;
27612;SDS011;15036;48.094;-1.690;2023-01-08T02:39:10;10.48;;;2.00;;
27612;SDS011;15036;48.094;-1.690;2023-01-08T02:41:51;8.95;;;2.13;;
27612;SDS011;15036;48.094;-1.690;2023-01-08T02:47:09;12.65;;;2.45;;
27612;SDS011;15036;48.094;-1.690;2023-01-08T02:49:41;17.35;;;2.90;;
27612;SDS011;15036;48.094;-1.690;2023-01-08T02:52:10;16.08;;;2.33;;
27612;SDS011;15036;48.094;-1.690;2023-01-08T02:54:38;16.42;;;2.97;;
27612;SDS011;15036;48.094;-1.690;2023-01-08T02:57:13;15.13;;;2.40;;
27612;SDS011;15036;48.094;-1.690;2023-01-08T02:59:41;16.33;;;2.20;;
27612;SDS011;15036;48.094;-1.690;2023-01-08T03:02:08;16.38;;;2.40;;
27612;SDS011;15036;48.094;-1.690;2023-01-08T03:04:42;11.45;;;2.33;;
27612;SDS011;15036;48.094;-1.690;2023-01-08T03:07:12;12.40;;;2.05;;
27612;SDS011;15036;48.094;-1.690;2023-01-08T03:09:38;19.40;;;3.08;;
27612;SDS011;15036;48.094;-1.690;2023-01-08T03:14:36;18.23;;;2.58;;
27612;SDS011;15036;48.094;-1.690;2023-01-08T03:17:22;12.57;;;2.13;;
27612;SDS011;15036;48.094;-1.690;2023-01-08T03:20:06;9.77;;;1.90;;
27612;SDS011;15036;48.094;-1.690;2023-01-08T03:22:36;15.93;;;2.10;;
27612;SDS011;15036;48.094;-1.690;2023-01-08T03:25:04;14.02;;;2.03;;
27612;SDS011;15036;48.094;-1.690;2023-01-08T03:27:32;14.60;;;1.80;;
27612;SDS011;15036;48.094;-1.690;2023-01-08T03:30:03;11.10;;;2.10;;
27612;SDS011;15036;48.094;-1.690;2023-01-08T03:32:30;12.88;;;2.00;;
27612;SDS011;15036;48.094;-1.690;2023-01-08T03:34:57;13.05;;;2.38;;
27612;SDS011;15036;48.094;-1.690;2023-01-08T03:37:26;11.55;;;2.50;;
27612;SDS011;15036;48.094;-1.690;2023-01-08T03:40:09;15.70;;;2.22;;
27612;SDS011;15036;48.094;-1.690;2023-01-08T03:42:40;10.27;;;2.15;;
27612;SDS011;15036;48.094;-1.690;2023-01-08T03:45:05;15.85;;;2.05;;
27612;SDS011;15036;48.094;-1.690;2023-01-08T03:47:31;11.00;;;2.00;;
27612;SDS011;15036;48.094;-1.690;2023-01-08T03:50:00;8.00;;;1.80;;
27612;SDS011;15036;48.094;-1.690;2023-01-08T03:52:28;11.00;;;2.20;;
27612;SDS011;15036;48.094;-1.690;2023-01-08T03:54:55;11.15;;;2.10;;
27612;SDS011;15036;48.094;-1.690;2023-01-08T03:57:21;12.00;;;2.03;;
27612;SDS011;15036;48.094;-1.690;2023-01-08T03:59:46;12.05;;;2.00;;
27612;SDS011;15036;48.094;-1.690;2023-01-08T04:02:12;10.52;;;2.10;;
27612;SDS011;15036;48.094;-1.690;2023-01-08T04:04:38;10.70;;;1.88;;
27612;SDS011;15036;48.094;-1.690;2023-01-08T04:07:03;15.38;;;2.25;;
27612;SDS011;15036;48.094;-1.690;2023-01-08T04:09:29;17.55;;;2.05;;
27612;SDS011;15036;48.094;-1.690;2023-01-08T04:11:54;14.98;;;2.60;;
27612;SDS011;15036;48.094;-1.690;2023-01-08T04:14:19;13.93;;;1.88;;
27612;SDS011;15036;48.094;-1.690;2023-01-08T04:16:45;10.88;;;1.80;;
27612;SDS011;15036;48.094;-1.690;2023-01-08T04:19:10;12.90;;;2.22;;
27612;SDS011;15036;48.094;-1.690;2023-01-08T04:21:36;10.00;;;1.48;;
27612;SDS011;15036;48.094;-1.690;2023-01-08T04:24:02;13.02;;;2.15;;
27612;SDS011;15036;48.094;-1.690;2023-01-08T04:26:27;12.27;;;1.80;;
27612;SDS011;15036;48.094;-1.690;2023-01-08T04:28:53;8.95;;;2.20;;
27612;SDS011;15036;48.094;-1.690;2023-01-08T04:31:18;15.75;;;1.90;;
27612;SDS011;15036;48.094;-1.690;2023-01-08T04:33:43;9.90;;;2.00;;
27612;SDS011;15036;48.094;-1.690;2023-01-08T04:36:09;11.75;;;1.90;;
27612;SDS011;15036;48.094;-1.690;2023-01-08T04:38:34;18.92;;;2.40;;
27612;SDS011;15036;48.094;-1.690;2023-01-08T04:41:00;13.25;;;2.10;;
27612;SDS011;15036;48.094;-1.690;2023-01-08T04:43:27;16.40;;;1.92;;
27612;SDS011;15036;48.094;-1.690;2023-01-08T04:45:56;11.25;;;2.03;;
27612;SDS011;15036;48.094;-1.690;2023-01-08T04:48:22;9.70;;;1.73;;
27612;SDS011;15036;48.094;-1.690;2023-01-08T04:50:48;13.98;;;2.33;;
27612;SDS011;15036;48.094;-1.690;2023-01-08T04:53:15;19.50;;;3.30;;
27612;SDS011;15036;48.094;-1.690;2023-01-08T04:55:40;15.50;;;2.30;;
27612;SDS011;15036;48.094;-1.690;2023-01-08T04:58:05;12.77;;;2.55;;
27612;SDS011;15036;48.094;-1.690;2023-01-08T05:00:31;13.18;;;2.15;;
27612;SDS011;15036;48.094;-1.690;2023-01-08T05:02:56;11.27;;;1.90;;
27612;SDS011;15036;48.094;-1.690;2023-01-08T05:05:21;14.82;;;2.60;;
27612;SDS011;15036;48.094;-1.690;2023-01-08T05:07:47;15.68;;;2.70;;
27612;SDS011;15036;48.094;-1.690;2023-01-08T05:10:12;16.05;;;2.33;;
27612;SDS011;15036;48.094;-1.690;2023-01-08T05:12:37;15.02;;;2.13;;
27612;SDS011;15036;48.094;-1.690;2023-01-08T05:15:03;19.75;;;2.90;;
27612;SDS011;15036;48.094;-1.690;2023-01-08T05:17:29;18.02;;;2.72;;
27612;SDS011;15036;48.094;-1.690;2023-01-08T05:19:54;13.82;;;2.60;;
27612;SDS011;15036;48.094;-1.690;2023-01-08T05:22:19;16.67;;;2.92;;
27612;SDS011;15036;48.094;-1.690;2023-01-08T05:24:45;14.88;;;2.30;;
27612;SDS011;15036;48.094;-1.690;2023-01-08T05:27:10;16.38;;;2.72;;
27612;SDS011;15036;48.094;-1.690;2023-01-08T05:29:36;18.48;;;2.85;;
27612;SDS011;15036;48.094;-1.690;2023-01-08T05:32:01;16.00;;;2.67;;
27612;SDS011;15036;48.094;-1.690;2023-01-08T05:34:26;16.50;;;2.55;;
27612;SDS011;15036;48.094;-1.690;2023-01-08T05:36:52;17.58;;;3.05;;
27612;SDS011;15036;48.094;-1.690;2023-01-08T05:39:18;16.23;;;2.70;;
27612;SDS011;15036;48.094;-1.690;2023-01-08T05:41:43;13.88;;;2.75;;
27612;SDS011;15036;48.094;-1.690;2023-01-08T05:44:09;19.60;;;3.03;;
27612;SDS011;15036;48.094;-1.690;2023-01-08T05:46:34;18.50;;;2.78;;
27612;SDS011;15036;48.094;-1.690;2023-01-08T05:49:00;20.80;;;3.38;;
27612;SDS011;15036;48.094;-1.690;2023-01-08T05:51:25;22.52;;;3.00;;
27612;SDS011;15036;48.094;-1.690;2023-01-08T05:53:51;18.40;;;2.83;;
27612;SDS011;15036;48.094;-1.690;2023-01-08T05:56:16;15.27;;;2.85;;
27612;SDS011;15036;48.094;-1.690;2023-01-08T05:58:41;16.65;;;2.90;;
27612;SDS011;15036;48.094;-1.690;2023-01-08T06:01:11;19.35;;;2.95;;
27612;SDS011;15036;48.094;-1.690;2023-01-08T06:03:40;14.90;;;3.00;;
27612;SDS011;15036;48.094;-1.690;2023-01-08T06:06:06;18.73;;;2.88;;
27612;SDS011;15036;48.094;-1.690;2023-01-08T06:08:32;20.25;;;3.03;;
27612;SDS011;15036;48.094;-1.690;2023-01-08T06:10:59;20.77;;;2.90;;
27612;SDS011;15036;48.094;-1.690;2023-01-08T06:13:29;20.13;;;3.00;;
27612;SDS011;15036;48.094;-1.690;2023-01-08T06:15:56;19.60;;;2.70;;
27612;SDS011;15036;48.094;-1.690;2023-01-08T06:18:24;23.55;;;2.63;;
27612;SDS011;15036;48.094;-1.690;2023-01-08T06:20:49;22.38;;;3.08;;
27612;SDS011;15036;48.094;-1.690;2023-01-08T06:23:14;22.67;;;3.25;;
27612;SDS011;15036;48.094;-1.690;2023-01-08T06:25:40;19.48;;;3.42;;
27612;SDS011;15036;48.094;-1.690;2023-01-08T06:28:05;22.33;;;3.88;;
27612;SDS011;15036;48.094;-1.690;2023-01-08T06:30:30;22.08;;;3.38;;
27612;SDS011;15036;48.094;-1.690;2023-01-08T06:32:56;19.65;;;2.88;;
27612;SDS011;15036;48.094;-1.690;2023-01-08T06:35:23;14.95;;;2.55;;
27612;SDS011;15036;48.094;-1.690;2023-01-08T06:37:49;14.25;;;2.20;;
27612;SDS011;15036;48.094;-1.690;2023-01-08T06:40:14;19.60;;;3.20;;
27612;SDS011;15036;48.094;-1.690;2023-01-08T06:42:40;19.98;;;3.08;;
27612;SDS011;15036;48.094;-1.690;2023-01-08T06:45:07;14.07;;;2.92;;
27612;SDS011;15036;48.094;-1.690;2023-01-08T06:47:33;13.80;;;2.47;;
27612;SDS011;15036;48.094;-1.690;2023-01-08T06:49:58;23.85;;;3.28;;
27612;SDS011;15036;48.094;-1.690;2023-01-08T06:52:23;23.27;;;2.92;;
27612;SDS011;15036;48.094;-1.690;2023-01-08T06:54:49;21.02;;;2.95;;
27612;SDS011;15036;48.094;-1.690;2023-01-08T06:57:15;24.05;;;2.92;;
27612;SDS011;15036;48.094;-1.690;2023-01-08T06:59:40;20.35;;;2.92;;
27612;SDS011;15036;48.094;-1.690;2023-01-08T07:02:07;18.67;;;3.30;;
27612;SDS011;15036;48.094;-1.690;2023-01-08T07:04:37;21.25;;;3.10;;
27612;SDS011;15036;48.094;-1.690;2023-01-08T07:07:02;19.02;;;3.17;;
27612;SDS011;15036;48.094;-1.690;2023-01-08T07:09:28;21.55;;;3.28;;
27612;SDS011;15036;48.094;-1.690;2023-01-08T07:11:53;28.42;;;3.63;;
27612;SDS011;15036;48.094;-1.690;2023-01-08T07:14:18;27.20;;;3.58;;
27612;SDS011;15036;48.094;-1.690;2023-01-08T07:16:44;22.20;;;3.50;;
27612;SDS011;15036;48.094;-1.690;2023-01-08T07:19:09;17.92;;;3.85;;
27612;SDS011;15036;48.094;-1.690;2023-01-08T07:21:35;23.13;;;3.63;;
27612;SDS011;15036;48.094;-1.690;2023-01-08T07:24:00;24.75;;;3.95;;
27612;SDS011;15036;48.094;-1.690;2023-01-08T07:26:25;21.50;;;3.17;;
27612;SDS011;15036;48.094;-1.690;2023-01-08T07:28:51;15.90;;;3.13;;
27612;SDS011;15036;48.094;-1.690;2023-01-08T07:31:17;25.40;;;3.13;;
27612;SDS011;15036;48.094;-1.690;2023-01-08T07:33:42;16.05;;;2.75;;
27612;SDS011;15036;48.094;-1.690;2023-01-08T07:36:07;16.50;;;2.95;;
27612;SDS011;15036;48.094;-1.690;2023-01-08T07:38:33;20.33;;;3.17;;
27612;SDS011;15036;48.094;-1.690;2023-01-08T07:40:59;15.77;;;3.42;;
27612;SDS011;15036;48.094;-1.690;2023-01-08T07:43:24;20.42;;;3.30;;
27612;SDS011;15036;48.094;-1.690;2023-01-08T07:45:50;20.27;;;2.92;;
27612;SDS011;15036;48.094;-1.690;2023-01-08T07:48:15;18.52;;;2.78;;
27612;SDS011;15036;48.094;-1.690;2023-01-08T07:50:41;18.17;;;2.78;;
27612;SDS011;15036;48.094;-1.690;2023-01-08T07:53:08;22.27;;;3.30;;
27612;SDS011;15036;48.094;-1.690;2023-01-08T07:55:34;19.05;;;3.35;;
27612;SDS011;15036;48.094;-1.690;2023-01-08T07:57:59;22.73;;;4.15;;
27612;SDS011;15036;48.094;-1.690;2023-01-08T08:00:25;26.90;;;3.85;;
27612;SDS011;15036;48.094;-1.690;2023-01-08T08:02:51;18.80;;;3.08;;
27612;SDS011;15036;48.094;-1.690;2023-01-08T08:05:16;20.70;;;3.10;;
27612;SDS011;15036;48.094;-1.690;2023-01-08T08:07:42;21.52;;;3.45;;
27612;SDS011;15036;48.094;-1.690;2023-01-08T08:10:08;20.40;;;3.03;;
27612;SDS011;15036;48.094;-1.690;2023-01-08T08:12:35;18.67;;;3.42;;
27612;SDS011;15036;48.094;-1.690;2023-01-08T08:15:01;18.42;;;3.17;;
27612;SDS011;15036;48.094;-1.690;2023-01-08T08:17:26;19.75;;;3.25;;
27612;SDS011;15036;48.094;-1.690;2023-01-08T08:19:52;23.75;;;3.65;;
27612;SDS011;15036;48.094;-1.690;2023-01-08T08:22:17;21.15;;;3.58;;
27612;SDS011;15036;48.094;-1.690;2023-01-08T08:24:42;19.63;;;3.40;;
27612;SDS011;15036;48.094;-1.690;2023-01-08T08:27:08;22.60;;;3.80;;
27612;SDS011;15036;48.094;-1.690;2023-01-08T08:29:33;19.73;;;4.10;;
27612;SDS011;15036;48.094;-1.690;2023-01-08T08:31:59;18.77;;;3.30;;
27612;SDS011;15036;48.094;-1.690;2023-01-08T08:34:24;16.33;;;2.97;;
27612;SDS011;15036;48.094;-1.690;2023-01-08T08:36:49;17.02;;;3.10;;
27612;SDS011;15036;48.094;-1.690;2023-01-08T08:39:15;19.13;;;3.17;;
27612;SDS011;15036;48.094;-1.690;2023-01-08T08:41:40;17.75;;;2.88;;
27612;SDS011;15036;48.094;-1.690;2023-01-08T08:44:06;16.45;;;3.40;;
27612;SDS011;15036;48.094;-1.690;2023-01-08T08:46:32;17.83;;;3.08;;
27612;SDS011;15036;48.094;-1.690;2023-01-08T08:48:58;21.08;;;3.88;;
27612;SDS011;15036;48.094;-1.690;2023-01-08T08:51:23;17.30;;;3.28;;
27612;SDS011;15036;48.094;-1.690;2023-01-08T08:53:48;16.25;;;3.28;;
27612;SDS011;15036;48.094;-1.690;2023-01-08T08:56:14;20.25;;;3.38;;
27612;SDS011;15036;48.094;-1.690;2023-01-08T08:58:39;17.40;;;3.25;;
27612;SDS011;15036;48.094;-1.690;2023-01-08T09:01:09;19.33;;;3.38;;
27612;SDS011;15036;48.094;-1.690;2023-01-08T09:03:35;19.90;;;3.30;;
27612;SDS011;15036;48.094;-1.690;2023-01-08T09:06:00;21.27;;;3.15;;
27612;SDS011;15036;48.094;-1.690;2023-01-08T09:08:25;18.05;;;2.75;;
27612;SDS011;15036;48.094;-1.690;2023-01-08T09:10:51;19.48;;;3.00;;
27612;SDS011;15036;48.094;-1.690;2023-01-08T09:13:16;21.00;;;2.85;;
27612;SDS011;15036;48.094;-1.690;2023-01-08T09:15:42;18.42;;;3.05;;
27612;SDS011;15036;48.094;-1.690;2023-01-08T09:18:07;21.13;;;4.03;;
27612;SDS011;15036;48.094;-1.690;2023-01-08T09:20:33;18.42;;;3.00;;
27612;SDS011;15036;48.094;-1.690;2023-01-08T09:22:59;22.88;;;3.60;;
27612;SDS011;15036;48.094;-1.690;2023-01-08T09:25:27;23.85;;;3.80;;
27612;SDS011;15036;48.094;-1.690;2023-01-08T09:28:02;16.02;;;3.40;;
27612;SDS011;15036;48.094;-1.690;2023-01-08T09:30:30;17.58;;;2.85;;
27612;SDS011;15036;48.094;-1.690;2023-01-08T09:32:58;20.13;;;3.50;;
27612;SDS011;15036;48.094;-1.690;2023-01-08T09:35:25;17.67;;;3.15;;
27612;SDS011;15036;48.094;-1.690;2023-01-08T09:37:54;18.65;;;3.00;;
27612;SDS011;15036;48.094;-1.690;2023-01-08T09:40:20;24.02;;;3.60;;
27612;SDS011;15036;48.094;-1.690;2023-01-08T09:42:51;18.98;;;3.17;;
27612;SDS011;15036;48.094;-1.690;2023-01-08T09:45:29;18.17;;;3.00;;
27612;SDS011;15036;48.094;-1.690;2023-01-08T09:47:56;17.33;;;3.08;;
27612;SDS011;15036;48.094;-1.690;2023-01-08T09:50:25;16.90;;;3.90;;
27612;SDS011;15036;48.094;-1.690;2023-01-08T09:52:52;19.45;;;3.05;;
27612;SDS011;15036;48.094;-1.690;2023-01-08T09:55:18;19.17;;;3.40;;
27612;SDS011;15036;48.094;-1.690;2023-01-08T09:57:44;19.40;;;3.45;;
27612;SDS011;15036;48.094;-1.690;2023-01-08T10:00:18;20.60;;;3.17;;
27612;SDS011;15036;48.094;-1.690;2023-01-08T10:02:48;20.15;;;4.40;;
27612;SDS011;15036;48.094;-1.690;2023-01-08T10:05:16;19.33;;;3.15;;
27612;SDS011;15036;48.094;-1.690;2023-01-08T10:07:42;20.98;;;3.03;;
27612;SDS011;15036;48.094;-1.690;2023-01-08T10:10:19;22.02;;;3.65;;
27612;SDS011;15036;48.094;-1.690;2023-01-08T10:12:53;16.70;;;2.95;;
27612;SDS011;15036;48.094;-1.690;2023-01-08T10:15:19;21.48;;;3.45;;
27612;SDS011;15036;48.094;-1.690;2023-01-08T10:20:28;19.50;;;3.35;;
27612;SDS011;15036;48.094;-1.690;2023-01-08T10:22:55;18.65;;;3.47;;
27612;SDS011;15036;48.094;-1.690;2023-01-08T10:27:56;13.02;;;2.95;;
27612;SDS011;15036;48.094;-1.690;2023-01-08T10:32:55;19.25;;;3.38;;
27612;SDS011;15036;48.094;-1.690;2023-01-08T10:38:30;23.25;;;4.03;;
27612;SDS011;15036;48.094;-1.690;2023-01-08T10:40:58;12.80;;;3.05;;
27612;SDS011;15036;48.094;-1.690;2023-01-08T10:43:29;16.25;;;3.65;;
27612;SDS011;15036;48.094;-1.690;2023-01-08T10:46:00;16.83;;;3.45;;
27612;SDS011;15036;48.094;-1.690;2023-01-08T10:48:32;17.73;;;2.83;;
27612;SDS011;15036;48.094;-1.690;2023-01-08T10:51:05;19.15;;;3.00;;
27612;SDS011;15036;48.094;-1.690;2023-01-08T10:53:39;20.58;;;3.45;;
27612;SDS011;15036;48.094;-1.690;2023-01-08T10:56:05;15.40;;;2.63;;
27612;SDS011;15036;48.094;-1.690;2023-01-08T10:58:41;14.18;;;3.03;;
27612;SDS011;15036;48.094;-1.690;2023-01-08T11:01:07;17.17;;;3.10;;
27612;SDS011;15036;48.094;-1.690;2023-01-08T11:03:39;13.18;;;2.72;;
27612;SDS011;15036;48.094;-1.690;2023-01-08T11:06:12;12.18;;;2.35;;
27612;SDS011;15036;48.094;-1.690;2023-01-08T11:08:53;16.65;;;3.03;;
27612;SDS011;15036;48.094;-1.690;2023-01-08T11:11:21;12.48;;;2.60;;
27612;SDS011;15036;48.094;-1.690;2023-01-08T11:13:57;14.52;;;2.88;;
27612;SDS011;15036;48.094;-1.690;2023-01-08T11:16:37;12.65;;;2.55;;
27612;SDS011;15036;48.094;-1.690;2023-01-08T11:21:56;12.05;;;2.25;;
27612;SDS011;15036;48.094;-1.690;2023-01-08T11:24:45;11.50;;;2.30;;
27612;SDS011;15036;48.094;-1.690;2023-01-08T11:29:44;13.27;;;2.80;;
27612;SDS011;15036;48.094;-1.690;2023-01-08T11:37:35;13.82;;;2.80;;
27612;SDS011;15036;48.094;-1.690;2023-01-08T11:57:51;14.50;;;2.88;;
27612;SDS011;15036;48.094;-1.690;2023-01-08T12:02:54;12.35;;;2.67;;
27612;SDS011;15036;48.094;-1.690;2023-01-08T12:05:44;11.93;;;2.42;;
27612;SDS011;15036;48.094;-1.690;2023-01-08T12:11:02;10.82;;;2.05;;
27612;SDS011;15036;48.094;-1.690;2023-01-08T12:13:49;9.85;;;2.40;;
27612;SDS011;15036;48.094;-1.690;2023-01-08T12:36:17;13.30;;;2.63;;
27612;SDS011;15036;48.094;-1.690;2023-01-08T12:38:51;13.02;;;2.40;;
27612;SDS011;15036;48.094;-1.690;2023-01-08T12:41:27;13.27;;;2.53;;
27612;SDS011;15036;48.094;-1.690;2023-01-08T12:44:05;13.65;;;2.92;;
27612;SDS011;15036;48.094;-1.690;2023-01-08T12:46:37;15.90;;;3.38;;
27612;SDS011;15036;48.094;-1.690;2023-01-08T12:49:08;15.10;;;3.42;;
27612;SDS011;15036;48.094;-1.690;2023-01-08T13:00:16;16.90;;;3.50;;
27612;SDS011;15036;48.094;-1.690;2023-01-08T13:03:00;17.15;;;3.10;;
27612;SDS011;15036;48.094;-1.690;2023-01-08T13:05:35;16.20;;;3.17;;
27612;SDS011;15036;48.094;-1.690;2023-01-08T13:08:02;21.48;;;4.50;;
27612;SDS011;15036;48.094;-1.690;2023-01-08T13:10:49;17.58;;;3.17;;
27612;SDS011;15036;48.094;-1.690;2023-01-08T13:13:27;18.80;;;3.40;;
27612;SDS011;15036;48.094;-1.690;2023-01-08T13:18:59;14.25;;;3.47;;
27612;SDS011;15036;48.094;-1.690;2023-01-08T13:21:36;13.48;;;3.17;;
27612;SDS011;15036;48.094;-1.690;2023-01-08T13:26:53;12.25;;;3.45;;
27612;SDS011;15036;48.094;-1.690;2023-01-08T13:29:39;12.10;;;3.00;;
27612;SDS011;15036;48.094;-1.690;2023-01-08T13:32:22;17.02;;;3.22;;
27612;SDS011;15036;48.094;-1.690;2023-01-08T13:37:41;14.65;;;2.97;;
27612;SDS011;15036;48.094;-1.690;2023-01-08T13:43:00;12.55;;;2.60;;
27612;SDS011;15036;48.094;-1.690;2023-01-08T13:45:26;11.65;;;2.70;;
27612;SDS011;15036;48.094;-1.690;2023-01-08T13:47:53;12.27;;;2.40;;
27612;SDS011;15036;48.094;-1.690;2023-01-08T13:50:23;10.98;;;2.75;;
27612;SDS011;15036;48.094;-1.690;2023-01-08T13:53:01;14.43;;;2.35;;
27612;SDS011;15036;48.094;-1.690;2023-01-08T13:58:04;10.63;;;2.13;;
27612;SDS011;15036;48.094;-1.690;2023-01-08T14:03:05;8.52;;;1.80;;
27612;SDS011;15036;48.094;-1.690;2023-01-08T14:05:44;10.30;;;2.23;;
27612;SDS011;15036;48.094;-1.690;2023-01-08T14:08:20;7.07;;;2.00;;
27612;SDS011;15036;48.094;-1.690;2023-01-08T14:10:46;12.65;;;2.95;;
27612;SDS011;15036;48.094;-1.690;2023-01-08T14:13:12;12.63;;;2.92;;
27612;SDS011;15036;48.094;-1.690;2023-01-08T14:15:41;13.35;;;3.25;;
27612;SDS011;15036;48.094;-1.690;2023-01-08T14:18:09;9.95;;;2.38;;
27612;SDS011;15036;48.094;-1.690;2023-01-08T14:20:37;11.57;;;2.78;;
27612;SDS011;15036;48.094;-1.690;2023-01-08T14:23:09;9.82;;;1.65;;
27612;SDS011;15036;48.094;-1.690;2023-01-08T14:25:46;3.63;;;0.80;;
27612;SDS011;15036;48.094;-1.690;2023-01-08T14:28:17;3.42;;;0.95;;
27612;SDS011;15036;48.094;-1.690;2023-01-08T14:33:13;5.47;;;0.90;;
27612;SDS011;15036;48.094;-1.690;2023-01-08T14:35:39;2.92;;;0.85;;
27612;SDS011;15036;48.094;-1.690;2023-01-08T14:38:05;5.20;;;1.05;;
27612;SDS011;15036;48.094;-1.690;2023-01-08T14:40:36;6.75;;;1.55;;
27612;SDS011;15036;48.094;-1.690;2023-01-08T14:43:05;5.25;;;1.60;;
27612;SDS011;15036;48.094;-1.690;2023-01-08T14:45:33;6.35;;;1.73;;
27612;SDS011;15036;48.094;-1.690;2023-01-08T14:53:31;3.72;;;1.38;;
27612;SDS011;15036;48.094;-1.690;2023-01-08T14:56:05;3.70;;;1.25;;
27612;SDS011;15036;48.094;-1.690;2023-01-08T14:58:36;5.53;;;1.42;;
27612;SDS011;15036;48.094;-1.690;2023-01-08T15:01:05;5.35;;;1.20;;
27612;SDS011;15036;48.094;-1.690;2023-01-08T15:03:38;4.03;;;1.60;;
27612;SDS011;15036;48.094;-1.690;2023-01-08T15:06:06;4.97;;;1.33;;
27612;SDS011;15036;48.094;-1.690;2023-01-08T15:08:41;4.10;;;0.98;;
27612;SDS011;15036;48.094;-1.690;2023-01-08T15:13:42;3.97;;;1.02;;
27612;SDS011;15036;48.094;-1.690;2023-01-08T15:18:41;2.50;;;1.00;;
27612;SDS011;15036;48.094;-1.690;2023-01-08T15:21:09;3.80;;;0.93;;
27612;SDS011;15036;48.094;-1.690;2023-01-08T15:23:40;3.25;;;0.85;;
27612;SDS011;15036;48.094;-1.690;2023-01-08T15:26:10;2.85;;;0.80;;
27612;SDS011;15036;48.094;-1.690;2023-01-08T15:28:42;2.60;;;0.90;;
27612;SDS011;15036;48.094;-1.690;2023-01-08T15:31:09;3.05;;;0.85;;
27612;SDS011;15036;48.094;-1.690;2023-01-08T15:33:34;3.70;;;0.60;;
27612;SDS011;15036;48.094;-1.690;2023-01-08T15:36:00;3.22;;;0.85;;
27612;SDS011;15036;48.094;-1.690;2023-01-08T15:38:25;9.00;;;1.88;;
27612;SDS011;15036;48.094;-1.690;2023-01-08T15:40:51;4.15;;;1.02;;
27612;SDS011;15036;48.094;-1.690;2023-01-08T15:43:18;3.95;;;0.90;;
27612;SDS011;15036;48.094;-1.690;2023-01-08T15:45:44;2.50;;;0.90;;
27612;SDS011;15036;48.094;-1.690;2023-01-08T15:48:11;4.40;;;1.00;;
27612;SDS011;15036;48.094;-1.690;2023-01-08T15:50:38;3.58;;;1.05;;
27612;SDS011;15036;48.094;-1.690;2023-01-08T15:53:06;4.00;;;1.45;;
27612;SDS011;15036;48.094;-1.690;2023-01-08T15:55:37;4.93;;;2.10;;
27612;SDS011;15036;48.094;-1.690;2023-01-08T15:58:03;4.47;;;1.80;;
27612;SDS011;15036;48.094;-1.690;2023-01-08T16:00:29;3.17;;;1.25;;
27612;SDS011;15036;48.094;-1.690;2023-01-08T16:02:56;4.32;;;1.20;;
27612;SDS011;15036;48.094;-1.690;2023-01-08T16:05:24;4.05;;;1.27;;
27612;SDS011;15036;48.094;-1.690;2023-01-08T16:07:52;4.88;;;1.30;;
27612;SDS011;15036;48.094;-1.690;2023-01-08T16:10:18;3.83;;;1.23;;
27612;SDS011;15036;48.094;-1.690;2023-01-08T16:12:43;3.33;;;1.35;;
27612;SDS011;15036;48.094;-1.690;2023-01-08T16:15:09;5.75;;;1.45;;
27612;SDS011;15036;48.094;-1.690;2023-01-08T16:17:36;4.30;;;1.40;;
27612;SDS011;15036;48.094;-1.690;2023-01-08T16:20:03;3.47;;;1.90;;
27612;SDS011;15036;48.094;-1.690;2023-01-08T16:22:29;7.65;;;2.90;;
27612;SDS011;15036;48.094;-1.690;2023-01-08T16:24:54;4.38;;;2.08;;
27612;SDS011;15036;48.094;-1.690;2023-01-08T16:27:20;5.88;;;1.77;;
27612;SDS011;15036;48.094;-1.690;2023-01-08T16:29:45;4.80;;;2.03;;